Time;durP1;ratioP1;P1;durP2;ratioP2;P2;SDS_P1;SDS_P2;PMS_P1;PMS_P2;Temp;Humidity;BMP_temperature;BMP_pressure;BME280_temperature;BME280_humidity;BME280_pressure;Samples;Min_cycle;Max_cycle;Signal;HPM_P1;HPM_P2
2024/01/06 00:02:18;;;;;;;5.03;3.88;;;7.50;70.60;;;;;;5014675;28;20033;-94
2024/01/06 00:04:44;;;;;;;5.40;4.20;;;7.50;70.60;;;;;;5016644;28;20042;-91
2024/01/06 00:07:10;;;;;;;4.60;4.10;;;7.50;70.60;;;;;;5021049;28;20037;-75
2024/01/06 00:09:36;;;;;;;6.70;4.93;;;7.50;70.70;;;;;;5020457;28;20041;-83
2024/01/06 00:12:03;;;;;;;6.13;4.05;;;7.40;70.50;;;;;;5016573;28;20029;-85
2024/01/06 00:14:30;;;;;;;6.60;4.40;;;7.40;70.50;;;;;;5015562;28;20030;-85
2024/01/06 00:16:56;;;;;;;5.63;4.05;;;7.40;70.50;;;;;;5017051;28;20022;-92
2024/01/06 00:19:22;;;;;;;5.07;3.90;;;7.40;70.60;;;;;;5018201;28;20411;-92
2024/01/06 00:21:47;;;;;;;6.00;4.15;;;7.40;70.60;;;;;;5018362;28;20036;-92
2024/01/06 00:24:13;;;;;;;5.78;3.75;;;7.40;70.60;;;;;;5021448;28;20411;-84
2024/01/06 00:26:39;;;;;;;4.63;4.22;;;7.40;70.60;;;;;;5032742;28;20902;-93
2024/01/06 00:29:05;;;;;;;8.43;4.20;;;7.40;70.60;;;;;;5018999;28;20396;-89
2024/01/06 00:31:31;;;;;;;5.68;3.70;;;7.40;70.60;;;;;;5020677;28;20029;-83
2024/01/06 00:33:57;;;;;;;5.53;3.85;;;7.40;70.70;;;;;;5017326;28;20405;-92
2024/01/06 00:36:25;;;;;;;4.25;3.85;;;7.30;70.50;;;;;;5023231;28;20037;-87
2024/01/06 00:38:51;;;;;;;5.13;3.65;;;7.40;70.70;;;;;;5020559;28;20470;-89
2024/01/06 00:41:17;;;;;;;4.32;3.60;;;7.30;70.50;;;;;;5027599;28;20064;-84
2024/01/06 00:43:43;;;;;;;3.83;3.05;;;7.30;70.50;;;;;;5021643;28;20579;-85
2024/01/06 00:46:09;;;;;;;6.30;3.80;;;7.30;70.60;;;;;;5012364;28;20611;-85
2024/01/06 00:48:35;;;;;;;5.10;3.63;;;7.30;70.50;;;;;;5015843;28;20088;-86
2024/01/06 00:51:01;;;;;;;4.40;3.58;;;7.30;70.60;;;;;;5020084;28;20029;-88
2024/01/06 00:53:27;;;;;;;5.05;3.78;;;7.30;70.60;;;;;;5033715;28;20038;-79
2024/01/06 00:55:54;;;;;;;6.40;3.47;;;7.30;70.70;;;;;;5018281;28;20132;-73
2024/01/06 00:58:20;;;;;;;5.03;3.78;;;7.30;70.70;;;;;;5015367;28;20489;-74
2024/01/06 01:00:48;;;;;;;4.55;3.38;;;7.30;70.70;;;;;;5011762;28;20026;-73
2024/01/06 01:03:15;;;;;;;4.55;3.80;;;7.20;70.50;;;;;;5015483;28;20053;-76
2024/01/06 01:05:41;;;;;;;3.67;3.33;;;7.20;70.50;;;;;;4999176;28;20060;-80
2024/01/06 01:08:06;;;;;;;6.50;3.58;;;7.20;70.50;;;;;;5005259;28;20561;-73
2024/01/06 01:10:32;;;;;;;4.38;3.15;;;7.10;70.40;;;;;;5014057;28;20508;-72
2024/01/06 01:12:59;;;;;;;7.93;3.25;;;7.10;70.40;;;;;;5007504;28;20049;-77
2024/01/06 01:15:26;;;;;;;5.07;3.55;;;7.10;70.40;;;;;;5013610;28;20496;-73
2024/01/06 01:17:56;;;;;;;4.10;3.13;;;7.10;70.40;;;;;;5009196;28;20072;-74
2024/01/06 01:20:22;;;;;;;4.82;3.35;;;7.00;70.30;;;;;;5013569;28;20500;-73
2024/01/06 01:22:50;;;;;;;4.90;3.03;;;7.00;70.30;;;;;;5016400;28;20044;-72
2024/01/06 01:25:16;;;;;;;11.88;3.03;;;7.00;70.30;;;;;;5015755;28;20049;-73
2024/01/06 01:27:42;;;;;;;3.92;2.67;;;6.90;70.10;;;;;;5016068;28;20049;-73
2024/01/06 01:30:09;;;;;;;4.90;2.92;;;6.90;70.60;;;;;;5012358;28;20069;-78
2024/01/06 01:32:35;;;;;;;4.45;2.85;;;6.90;70.10;;;;;;5011907;28;20524;-73
2024/01/06 01:35:03;;;;;;;6.47;3.10;;;6.90;70.20;;;;;;5014196;28;20337;-73
2024/01/06 01:37:29;;;;;;;4.28;3.17;;;6.90;70.20;;;;;;5009638;28;20494;-76
2024/01/06 01:39:56;;;;;;;5.82;3.35;;;6.80;70.00;;;;;;5017944;28;20025;-83
2024/01/06 01:42:22;;;;;;;3.40;3.10;;;6.80;70.00;;;;;;5007907;28;20038;-79
2024/01/06 01:44:48;;;;;;;5.20;3.10;;;6.80;70.00;;;;;;5010201;28;20140;-79
2024/01/06 01:47:18;;;;;;;5.25;2.75;;;6.80;70.00;;;;;;5011375;28;20045;-74
2024/01/06 01:49:46;;;;;;;5.57;2.75;;;6.80;70.00;;;;;;5013173;28;20116;-79
2024/01/06 01:52:14;;;;;;;3.03;2.72;;;6.80;70.10;;;;;;5012346;28;20030;-78
2024/01/06 01:54:41;;;;;;;3.30;2.75;;;6.70;69.90;;;;;;5018381;28;20037;-78
2024/01/06 01:57:07;;;;;;;3.50;2.88;;;6.70;70.00;;;;;;5015343;28;20537;-78
2024/01/06 01:59:33;;;;;;;7.00;3.50;;;6.70;70.00;;;;;;5013854;28;20033;-74
2024/01/06 02:02:01;;;;;;;3.25;2.70;;;6.60;69.80;;;;;;5016251;28;20034;-76
2024/01/06 02:04:27;;;;;;;3.17;2.75;;;6.60;69.80;;;;;;5008546;28;20172;-79
2024/01/06 02:06:54;;;;;;;3.72;2.88;;;6.60;69.80;;;;;;5013076;28;20037;-77
2024/01/06 02:09:22;;;;;;;3.13;2.58;;;6.60;69.90;;;;;;5007984;28;20033;-78
2024/01/06 02:11:49;;;;;;;4.65;2.22;;;6.50;69.70;;;;;;5015066;28;20033;-74
2024/01/06 02:14:18;;;;;;;5.93;2.83;;;6.50;69.70;;;;;;5017661;28;20356;-71
2024/01/06 02:16:46;;;;;;;4.45;2.42;;;6.50;69.70;;;;;;5014296;28;20021;-77
2024/01/06 02:19:17;;;;;;;4.38;2.58;;;6.40;69.60;;;;;;5010692;28;20033;-78
2024/01/06 02:21:47;;;;;;;5.70;3.00;;;6.50;69.80;;;;;;5008765;28;20112;-75
2024/01/06 02:24:15;;;;;;;4.38;2.75;;;6.40;69.60;;;;;;5024895;28;20469;-79
2024/01/06 02:26:42;;;;;;;3.13;2.20;;;6.40;69.60;;;;;;5007527;28;20033;-79
2024/01/06 02:29:09;;;;;;;3.10;1.98;;;6.40;69.60;;;;;;5013368;28;20037;-83
2024/01/06 02:31:34;;;;;;;2.85;2.08;;;6.30;69.40;;;;;;5010068;28;20025;-85
2024/01/06 02:34:01;;;;;;;2.92;2.28;;;6.30;69.50;;;;;;5003446;28;20164;-76
2024/01/06 02:36:26;;;;;;;3.75;2.00;;;6.30;69.50;;;;;;5016030;28;20021;-78
2024/01/06 02:38:53;;;;;;;3.97;2.45;;;6.30;69.50;;;;;;5006800;28;20065;-73
2024/01/06 02:41:19;;;;;;;2.75;2.30;;;6.20;69.30;;;;;;5011648;28;20105;-81
2024/01/06 02:43:47;;;;;;;4.57;1.50;;;6.20;69.40;;;;;;5015147;28;20034;-80
2024/01/06 02:46:13;;;;;;;3.85;1.70;;;6.20;69.40;;;;;;5018940;28;20045;-75
2024/01/06 02:48:39;;;;;;;4.43;2.00;;;6.20;69.40;;;;;;5010591;28;20375;-82
2024/01/06 02:51:05;;;;;;;4.85;1.40;;;6.10;69.30;;;;;;5015532;28;20037;-76
2024/01/06 02:53:31;;;;;;;2.50;1.25;;;6.10;69.30;;;;;;5015573;28;20040;-81
2024/01/06 02:55:58;;;;;;;3.53;1.52;;;6.10;69.40;;;;;;5012815;28;20029;-81
2024/01/06 02:58:24;;;;;;;2.65;1.20;;;6.10;69.40;;;;;;5015346;28;20399;-84
2024/01/06 03:00:49;;;;;;;2.53;1.60;;;6.00;69.20;;;;;;5011855;28;20206;-81
2024/01/06 03:03:16;;;;;;;2.35;1.30;;;6.00;69.30;;;;;;5022107;28;20037;-83
2024/01/06 03:05:42;;;;;;;2.33;1.23;;;6.00;69.30;;;;;;5013599;28;20037;-86
2024/01/06 03:08:08;;;;;;;3.30;1.70;;;6.00;69.30;;;;;;5017478;28;20111;-75
2024/01/06 03:10:34;;;;;;;2.72;1.30;;;5.90;69.10;;;;;;5033433;28;20041;-82
2024/01/06 03:13:00;;;;;;;2.72;1.38;;;5.90;69.10;;;;;;5038959;28;20076;-81
2024/01/06 03:15:26;;;;;;;3.47;1.58;;;5.90;69.10;;;;;;5032868;28;20053;-80
2024/01/06 03:17:52;;;;;;;1.55;1.15;;;5.90;69.10;;;;;;5056110;28;20026;-83
2024/01/06 03:20:18;;;;;;;2.47;0.90;;;5.90;69.10;;;;;;5037608;28;20048;-76
2024/01/06 03:22:44;;;;;;;2.15;0.98;;;5.80;68.90;;;;;;5033748;28;20045;-76
2024/01/06 03:25:10;;;;;;;1.20;0.93;;;5.70;69.30;;;;;;5034922;28;20046;-78
2024/01/06 03:27:41;;;;;;;2.10;0.90;;;5.80;68.90;;;;;;5013117;28;20026;-85
2024/01/06 03:30:07;;;;;;;3.95;1.00;;;5.70;68.80;;;;;;5020587;28;20119;-91
2024/01/06 03:32:33;;;;;;;1.63;1.35;;;5.70;68.80;;;;;;5019536;28;20025;-78
2024/01/06 03:34:59;;;;;;;3.10;1.00;;;5.70;68.80;;;;;;5016346;28;20030;-88
2024/01/06 03:37:25;;;;;;;1.58;1.02;;;5.60;68.60;;;;;;5021381;28;20033;-87
2024/01/06 03:39:51;;;;;;;2.90;0.95;;;5.60;68.70;;;;;;5017552;28;20092;-71
2024/01/06 03:42:17;;;;;;;2.03;0.90;;;5.60;68.60;;;;;;5017648;28;20033;-82
2024/01/06 03:44:44;;;;;;;2.97;1.35;;;5.50;68.50;;;;;;5016790;28;20332;-78
2024/01/06 03:47:10;;;;;;;2.97;0.80;;;5.50;68.40;;;;;;5014356;28;20052;-79
2024/01/06 03:49:36;;;;;;;5.75;1.35;;;5.50;68.50;;;;;;5018958;28;20041;-77
2024/01/06 03:52:02;;;;;;;2.13;0.90;;;5.40;68.40;;;;;;5013142;28;20033;-73
2024/01/06 03:54:28;;;;;;;3.55;1.15;;;5.40;68.40;;;;;;5016502;28;20033;-78
2024/01/06 03:56:54;;;;;;;4.00;1.20;;;5.40;68.40;;;;;;5017427;28;20104;-76
2024/01/06 03:59:20;;;;;;;1.52;1.15;;;5.40;68.40;;;;;;5016424;28;20029;-79
2024/01/06 04:01:46;;;;;;;5.60;1.40;;;5.40;68.50;;;;;;5009717;28;20022;-73
2024/01/06 04:04:13;;;;;;;3.63;1.10;;;5.40;68.50;;;;;;5023940;28;20040;-84
2024/01/06 04:06:39;;;;;;;3.13;1.00;;;5.40;68.50;;;;;;5015413;28;20040;-79
2024/01/06 04:09:07;;;;;;;3.35;1.10;;;5.30;68.40;;;;;;5011293;28;20075;-72
2024/01/06 04:11:33;;;;;;;2.90;1.00;;;5.30;68.30;;;;;;5022123;28;20063;-81
2024/01/06 04:13:59;;;;;;;3.88;1.00;;;5.30;68.40;;;;;;5022487;28;20061;-82
2024/01/06 04:16:27;;;;;;;3.55;1.25;;;5.30;68.40;;;;;;5016348;28;20041;-77
2024/01/06 04:18:53;;;;;;;2.17;0.88;;;5.30;68.40;;;;;;5018155;28;20053;-79
2024/01/06 04:21:20;;;;;;;3.40;1.10;;;5.30;68.40;;;;;;5016889;28;20038;-81
2024/01/06 04:23:46;;;;;;;2.92;1.13;;;5.30;68.40;;;;;;5015532;28;20037;-87
2024/01/06 04:26:13;;;;;;;2.80;1.13;;;5.30;68.50;;;;;;5011335;28;20026;-80
2024/01/06 04:28:38;;;;;;;3.20;0.77;;;5.30;68.50;;;;;;5009002;28;20130;-74
2024/01/06 04:31:04;;;;;;;5.40;1.13;;;5.20;68.30;;;;;;5014234;28;20333;-72
2024/01/06 04:33:31;;;;;;;2.53;0.90;;;5.20;68.40;;;;;;5020451;28;20028;-73
2024/01/06 04:35:58;;;;;;;1.75;0.75;;;5.20;68.40;;;;;;5020839;28;20021;-74
2024/01/06 04:38:24;;;;;;;2.30;1.20;;;5.20;68.40;;;;;;5012574;28;20096;-77
2024/01/06 04:40:50;;;;;;;2.65;0.85;;;5.20;68.40;;;;;;5014383;28;20033;-72
2024/01/06 04:43:16;;;;;;;3.33;0.95;;;5.20;68.40;;;;;;5016630;28;20041;-72
2024/01/06 04:45:42;;;;;;;1.77;0.98;;;5.20;68.40;;;;;;5013910;28;20084;-74
2024/01/06 04:48:08;;;;;;;1.88;1.00;;;5.20;68.50;;;;;;5016979;28;20055;-78
2024/01/06 04:50:34;;;;;;;5.78;1.05;;;5.20;68.40;;;;;;5009527;28;20037;-70
2024/01/06 04:53:00;;;;;;;1.35;0.80;;;5.10;68.20;;;;;;5015511;28;20112;-71
2024/01/06 04:55:26;;;;;;;5.70;1.13;;;5.10;68.20;;;;;;5017110;28;20034;-71
2024/01/06 04:57:52;;;;;;;3.22;0.98;;;5.10;68.20;;;;;;5008043;28;20018;-75
2024/01/06 05:00:20;;;;;;;0.93;0.50;;;5.10;68.30;;;;;;5010624;28;20317;-72
2024/01/06 05:02:46;;;;;;;2.90;0.80;;;5.10;68.20;;;;;;5011731;28;20121;-72
2024/01/06 05:05:12;;;;;;;2.08;0.93;;;5.10;68.30;;;;;;5016796;28;20037;-81
2024/01/06 05:07:39;;;;;;;1.90;0.80;;;5.00;68.10;;;;;;5014871;28;20053;-72
2024/01/06 05:10:06;;;;;;;3.13;1.10;;;5.00;68.10;;;;;;5009440;28;20065;-79
2024/01/06 05:12:32;;;;;;;1.08;0.70;;;5.00;68.20;;;;;;5019937;28;20033;-73
2024/01/06 05:14:58;;;;;;;1.27;0.93;;;5.00;68.20;;;;;;5012734;28;20552;-75
2024/01/06 05:17:25;;;;;;;1.35;0.75;;;5.00;68.20;;;;;;5012042;28;20026;-79
2024/01/06 05:19:51;;;;;;;5.38;1.42;;;5.00;68.30;;;;;;5014841;28;20030;-71
2024/01/06 05:22:17;;;;;;;2.58;0.82;;;5.00;68.30;;;;;;5011409;28;20048;-71
2024/01/06 05:24:44;;;;;;;4.55;1.40;;;5.00;68.30;;;;;;5011857;28;20132;-71
2024/01/06 05:27:11;;;;;;;2.80;0.90;;;5.00;68.40;;;;;;5015871;28;20474;-71
2024/01/06 05:29:37;;;;;;;3.67;1.00;;;5.00;68.40;;;;;;5013733;28;20481;-74
2024/01/06 05:32:03;;;;;;;3.92;1.10;;;5.00;68.40;;;;;;5011903;28;20030;-75
2024/01/06 05:34:29;;;;;;;4.13;1.20;;;5.00;68.40;;;;;;5011931;28;20526;-71
2024/01/06 05:36:55;;;;;;;2.88;0.90;;;5.00;68.50;;;;;;5018349;28;20025;-75
2024/01/06 05:39:21;;;;;;;3.90;1.10;;;5.00;68.50;;;;;;5015973;28;20497;-79
2024/01/06 05:41:47;;;;;;;2.83;1.13;;;5.00;68.50;;;;;;5007530;28;20382;-83
2024/01/06 05:44:13;;;;;;;3.42;1.10;;;5.00;68.50;;;;;;5012810;28;20046;-78
2024/01/06 05:46:39;;;;;;;3.47;1.15;;;5.00;68.50;;;;;;5009249;28;20366;-84
2024/01/06 05:49:05;;;;;;;3.92;0.90;;;5.00;68.50;;;;;;5005483;28;20041;-72
2024/01/06 05:51:31;;;;;;;3.30;1.20;;;5.00;68.60;;;;;;5012849;28;20034;-79
2024/01/06 05:53:57;;;;;;;1.75;0.93;;;5.00;68.60;;;;;;5014664;28;20026;-88
2024/01/06 05:56:26;;;;;;;3.97;1.10;;;5.00;68.60;;;;;;5013135;28;20044;-81
2024/01/06 05:58:53;;;;;;;2.85;0.85;;;5.00;68.60;;;;;;5012306;28;20024;-79
2024/01/06 06:01:20;;;;;;;3.35;1.00;;;5.00;68.60;;;;;;5007419;28;20041;-73
2024/01/06 06:03:47;;;;;;;2.47;1.02;;;5.00;68.60;;;;;;5011065;28;20026;-76
2024/01/06 06:06:13;;;;;;;1.95;0.90;;;5.00;68.60;;;;;;5011822;28;20044;-82
2024/01/06 06:08:43;;;;;;;3.85;1.40;;;5.00;68.60;;;;;;5016463;28;20029;-76
2024/01/06 06:11:12;;;;;;;1.30;0.70;;;5.00;68.60;;;;;;5015296;28;20045;-75
2024/01/06 06:13:40;;;;;;;3.28;1.15;;;4.90;68.40;;;;;;5015096;28;20087;-76
2024/01/06 06:16:07;;;;;;;3.70;1.00;;;4.90;68.40;;;;;;5018846;28;20061;-75
2024/01/06 06:18:33;;;;;;;2.63;0.93;;;4.90;68.40;;;;;;5014266;28;20025;-80
2024/01/06 06:20:59;;;;;;;3.08;1.20;;;4.90;68.40;;;;;;5010311;28;20014;-79
2024/01/06 06:23:27;;;;;;;2.35;1.10;;;4.90;68.40;;;;;;5010217;28;20029;-79
2024/01/06 06:25:53;;;;;;;2.03;0.77;;;4.90;68.40;;;;;;5013271;28;20037;-80
2024/01/06 06:28:19;;;;;;;4.15;1.17;;;4.80;68.20;;;;;;5013599;28;20041;-83
2024/01/06 06:30:45;;;;;;;3.80;1.20;;;4.80;68.30;;;;;;5008736;28;20034;-78
2024/01/06 06:33:11;;;;;;;2.25;0.90;;;4.80;68.30;;;;;;5012913;28;20026;-75
2024/01/06 06:35:37;;;;;;;3.05;1.70;;;4.70;68.10;;;;;;5016051;28;20033;-77
2024/01/06 06:38:03;;;;;;;2.72;0.82;;;4.70;68.00;;;;;;5019268;28;20041;-80
2024/01/06 06:40:30;;;;;;;2.17;0.85;;;4.70;68.10;;;;;;5006249;28;20045;-74
2024/01/06 06:42:56;;;;;;;2.15;1.17;;;4.60;67.90;;;;;;5015703;28;20577;-83
2024/01/06 06:45:22;;;;;;;1.25;0.77;;;4.60;67.90;;;;;;5011747;28;20042;-81
2024/01/06 06:47:49;;;;;;;1.50;1.00;;;4.60;67.90;;;;;;5010985;28;20042;-76
2024/01/06 06:50:17;;;;;;;2.05;1.02;;;4.60;67.90;;;;;;5014686;28;20043;-76
2024/01/06 06:52:44;;;;;;;3.78;1.50;;;4.60;67.90;;;;;;5016462;28;20397;-78
2024/01/06 06:55:10;;;;;;;4.63;1.58;;;4.50;67.70;;;;;;5012472;28;20034;-77
2024/01/06 06:57:36;;;;;;;1.42;1.08;;;4.50;67.60;;;;;;5012747;28;20033;-70
2024/01/06 07:00:02;;;;;;;1.50;0.95;;;4.50;67.70;;;;;;5009113;28;20026;-74
2024/01/06 07:02:29;;;;;;;4.30;1.30;;;4.50;67.70;;;;;;5016391;28;20057;-76
2024/01/06 07:04:55;;;;;;;1.30;1.05;;;4.40;67.50;;;;;;5005224;28;20053;-76
2024/01/06 07:07:21;;;;;;;4.72;1.70;;;4.40;67.50;;;;;;5008583;28;20029;-74
2024/01/06 07:09:47;;;;;;;2.63;1.27;;;4.40;67.50;;;;;;5010825;28;20108;-73
2024/01/06 07:12:13;;;;;;;1.50;1.10;;;4.40;67.50;;;;;;5016642;28;20029;-73
2024/01/06 07:14:38;;;;;;;3.28;1.10;;;4.40;67.50;;;;;;5017560;28;20048;-73
2024/01/06 07:17:06;;;;;;;3.45;1.48;;;4.30;67.30;;;;;;5011525;28;20350;-73
2024/01/06 07:19:32;;;;;;;3.58;1.77;;;4.30;67.30;;;;;;5012091;28;20029;-74
2024/01/06 07:21:58;;;;;;;4.40;1.70;;;4.30;67.30;;;;;;5013790;28;20321;-77
2024/01/06 07:24:24;;;;;;;2.25;1.35;;;4.20;67.20;;;;;;5013285;28;20041;-75
2024/01/06 07:26:50;;;;;;;1.77;1.15;;;4.20;67.20;;;;;;5013020;28;20033;-74
2024/01/06 07:29:16;;;;;;;2.25;1.50;;;4.20;67.20;;;;;;5013622;28;20045;-76
2024/01/06 07:31:42;;;;;;;2.97;1.60;;;4.20;67.20;;;;;;5010277;28;20478;-78
2024/01/06 07:34:08;;;;;;;2.22;1.80;;;4.20;67.20;;;;;;5017226;28;20072;-76
2024/01/06 07:36:34;;;;;;;1.70;1.60;;;4.10;67.00;;;;;;5015950;28;20401;-76
2024/01/06 07:39:00;;;;;;;2.42;1.73;;;4.10;67.00;;;;;;5020758;28;20036;-73
2024/01/06 07:41:26;;;;;;;4.18;1.60;;;4.10;67.00;;;;;;5012781;28;20033;-74
2024/01/06 07:43:52;;;;;;;3.88;1.95;;;4.10;67.00;;;;;;5017909;28;20042;-72
2024/01/06 07:46:19;;;;;;;3.00;1.83;;;4.00;66.80;;;;;;5013137;28;20044;-72
2024/01/06 07:48:45;;;;;;;3.03;2.03;;;4.00;66.80;;;;;;5012820;28;20049;-72
2024/01/06 07:51:11;;;;;;;3.42;2.03;;;4.00;66.80;;;;;;5007939;28;20421;-72
2024/01/06 07:53:37;;;;;;;2.95;1.67;;;4.00;66.90;;;;;;5018433;28;20494;-74
2024/01/06 07:56:03;;;;;;;5.68;1.83;;;4.00;67.10;;;;;;5026168;28;20489;-72
2024/01/06 07:58:29;;;;;;;3.72;2.42;;;4.00;67.10;;;;;;5025371;28;20072;-73
2024/01/06 08:00:55;;;;;;;4.68;3.03;;;4.10;67.30;;;;;;5024270;28;20037;-71
2024/01/06 08:03:21;;;;;;;2.42;2.22;;;4.10;67.30;;;;;;5018400;28;20052;-73
2024/01/06 08:05:47;;;;;;;6.35;2.20;;;4.10;67.20;;;;;;5013108;28;20176;-74
2024/01/06 08:08:16;;;;;;;4.20;2.30;;;4.20;67.40;;;;;;5012356;28;20041;-72
2024/01/06 08:10:43;;;;;;;3.97;2.53;;;4.10;67.30;;;;;;5009476;28;20033;-70
2024/01/06 08:13:08;;;;;;;3.15;2.53;;;4.10;67.40;;;;;;5006305;28;20026;-73
2024/01/06 08:15:34;;;;;;;5.63;2.33;;;4.20;67.90;;;;;;5012392;28;20461;-75
2024/01/06 08:18:00;;;;;;;5.63;2.58;;;4.20;67.90;;;;;;5001198;28;20410;-73
2024/01/06 08:20:26;;;;;;;3.80;2.63;;;4.30;68.10;;;;;;5006148;28;20041;-73
2024/01/06 08:22:52;;;;;;;3.72;2.47;;;4.40;68.20;;;;;;5008445;28;20606;-75
2024/01/06 08:25:18;;;;;;;3.10;2.60;;;4.50;68.30;;;;;;5003008;28;20482;-75
2024/01/06 08:27:44;;;;;;;4.53;2.65;;;4.50;68.20;;;;;;5013553;28;20272;-75
2024/01/06 08:30:11;;;;;;;4.53;2.88;;;4.50;68.20;;;;;;5011530;28;20112;-74
2024/01/06 08:32:37;;;;;;;3.58;3.00;;;4.50;68.20;;;;;;5010601;28;20154;-72
2024/01/06 08:35:04;;;;;;;4.13;2.80;;;4.50;68.80;;;;;;5014573;28;20336;-73
2024/01/06 08:37:30;;;;;;;3.30;2.33;;;4.50;68.40;;;;;;5008285;28;20401;-71
2024/01/06 08:39:56;;;;;;;3.22;2.63;;;4.40;68.30;;;;;;5009634;28;20038;-74
2024/01/06 08:42:23;;;;;;;2.90;2.60;;;4.40;68.30;;;;;;5012551;28;20030;-76
2024/01/06 08:44:50;;;;;;;3.30;2.58;;;4.50;68.50;;;;;;5014789;28;20502;-76
2024/01/06 08:47:17;;;;;;;3.25;2.60;;;4.40;68.30;;;;;;5012032;28;20144;-74
2024/01/06 08:49:44;;;;;;;4.55;2.60;;;4.40;68.30;;;;;;5009969;28;20048;-75
2024/01/06 08:52:10;;;;;;;3.05;2.30;;;4.40;68.30;;;;;;5011933;28;20033;-75
2024/01/06 08:54:35;;;;;;;4.88;2.95;;;4.40;68.30;;;;;;5011272;28;20041;-72
2024/01/06 08:57:01;;;;;;;6.20;3.53;;;4.40;68.30;;;;;;5018357;28;20116;-75
2024/01/06 08:59:27;;;;;;;7.03;3.33;;;4.40;68.30;;;;;;5014449;28;20492;-75
2024/01/06 09:01:53;;;;;;;4.93;2.83;;;4.40;68.80;;;;;;5008540;28;20029;-74
2024/01/06 09:04:19;;;;;;;3.95;3.50;;;4.40;68.30;;;;;;5018271;28;20049;-76
2024/01/06 09:06:46;;;;;;;7.35;3.45;;;4.40;68.40;;;;;;5010363;28;20068;-72
2024/01/06 09:09:13;;;;;;;3.88;3.20;;;4.40;68.50;;;;;;5009830;28;20049;-74
2024/01/06 09:11:39;;;;;;;3.15;2.75;;;4.40;68.40;;;;;;5011615;28;20106;-73
2024/01/06 09:14:05;;;;;;;5.80;3.83;;;4.40;68.40;;;;;;5007821;28;20336;-75
2024/01/06 09:16:31;;;;;;;4.70;3.65;;;4.50;68.50;;;;;;5010476;28;20068;-77
2024/01/06 09:18:57;;;;;;;3.55;2.90;;;4.40;68.30;;;;;;5008181;28;20329;-74
2024/01/06 09:21:23;;;;;;;5.82;3.50;;;4.40;68.30;;;;;;5014717;28;20079;-76
2024/01/06 09:23:49;;;;;;;7.05;4.15;;;4.40;68.30;;;;;;5013703;28;20030;-75
2024/01/06 09:26:16;;;;;;;4.15;3.40;;;4.40;68.30;;;;;;5007308;28;20045;-75
2024/01/06 09:28:42;;;;;;;8.13;3.97;;;4.40;68.30;;;;;;5009575;28;20030;-73
2024/01/06 09:31:08;;;;;;;7.22;3.72;;;4.40;68.30;;;;;;4986029;28;20092;-73
2024/01/06 09:33:34;;;;;;;6.63;3.95;;;4.40;68.30;;;;;;5011591;28;20033;-74
2024/01/06 09:36:01;;;;;;;5.10;3.17;;;4.40;68.30;;;;;;5015184;28;20448;-74
2024/01/06 09:38:27;;;;;;;4.18;2.97;;;4.40;68.30;;;;;;5014751;28;20034;-74
2024/01/06 09:40:55;;;;;;;6.00;2.65;;;4.40;68.30;;;;;;5011748;28;20025;-75
2024/01/06 09:43:22;;;;;;;6.13;2.70;;;4.40;68.30;;;;;;5014724;28;20029;-75
2024/01/06 09:45:58;;;;;;;4.30;2.00;;;4.40;68.20;;;;;;4999258;28;20180;-75
2024/01/06 09:48:30;;;;;;;3.15;2.15;;;4.40;68.20;;;;;;5012017;28;20034;-72
2024/01/06 09:51:01;;;;;;;6.83;2.47;;;4.40;68.20;;;;;;5008990;28;20034;-73
2024/01/06 09:53:36;;;;;;;4.40;2.20;;;4.40;68.10;;;;;;4996797;28;20293;-74
2024/01/06 09:56:04;;;;;;;4.28;1.85;;;4.40;68.10;;;;;;5013345;28;20030;-75
2024/01/06 09:58:34;;;;;;;4.93;2.03;;;4.40;68.10;;;;;;5010918;28;20035;-75
2024/01/06 10:01:02;;;;;;;4.47;2.22;;;4.40;68.00;;;;;;5005952;28;20037;-76
2024/01/06 10:03:28;;;;;;;3.25;2.60;;;4.40;68.00;;;;;;5015516;28;20473;-74
2024/01/06 10:06:00;;;;;;;4.15;2.55;;;4.40;68.00;;;;;;5012980;28;20048;-76
2024/01/06 10:08:27;;;;;;;3.65;2.50;;;4.40;68.00;;;;;;5016942;28;20063;-76
2024/01/06 10:10:53;;;;;;;5.07;3.50;;;4.50;68.20;;;;;;5007420;28;20046;-72
2024/01/06 10:13:20;;;;;;;5.60;3.60;;;4.50;68.20;;;;;;5015585;28;20052;-76
2024/01/06 10:15:47;;;;;;;4.70;2.80;;;4.50;68.20;;;;;;5015858;28;20496;-74
2024/01/06 10:18:14;;;;;;;4.03;3.20;;;4.50;68.20;;;;;;5016877;28;20484;-75
2024/01/06 10:20:40;;;;;;;5.28;3.13;;;4.50;68.10;;;;;;5007746;28;20176;-74
2024/01/06 10:23:06;;;;;;;6.28;2.97;;;4.60;68.40;;;;;;5009416;28;20121;-74
2024/01/06 10:25:35;;;;;;;8.20;3.40;;;4.60;68.20;;;;;;5003426;28;20042;-75
2024/01/06 10:28:03;;;;;;;4.93;3.00;;;4.60;68.20;;;;;;5001024;28;20034;-72
2024/01/06 10:30:38;;;;;;;5.57;3.05;;;4.60;68.20;;;;;;5003102;28;20527;-75
2024/01/06 10:33:10;;;;;;;5.57;3.38;;;4.60;68.20;;;;;;5012724;28;20040;-74
2024/01/06 10:35:37;;;;;;;3.00;2.65;;;4.60;68.20;;;;;;5017002;28;20064;-73
2024/01/06 10:38:04;;;;;;;3.85;2.90;;;4.70;68.30;;;;;;5008898;28;20047;-75
2024/01/06 10:40:31;;;;;;;5.78;2.97;;;4.70;68.50;;;;;;5030632;28;20107;-75
2024/01/06 10:42:57;;;;;;;5.35;2.80;;;4.70;68.30;;;;;;5010296;28;20033;-75
2024/01/06 10:45:23;;;;;;;4.97;3.10;;;4.70;68.30;;;;;;5014379;28;20049;-76
2024/01/06 10:47:50;;;;;;;4.03;3.40;;;4.70;68.30;;;;;;5012888;28;20080;-74
2024/01/06 10:50:17;;;;;;;6.28;3.25;;;4.80;68.50;;;;;;5010040;28;20065;-75
2024/01/06 10:52:44;;;;;;;5.60;3.28;;;4.80;68.50;;;;;;5010654;28;20055;-73
2024/01/06 10:55:11;;;;;;;4.47;2.92;;;4.80;68.40;;;;;;5014691;28;20033;-74
2024/01/06 10:57:40;;;;;;;5.57;3.60;;;4.90;68.60;;;;;;5008299;28;20033;-75
2024/01/06 11:00:09;;;;;;;4.22;3.78;;;4.90;69.10;;;;;;5006927;28;20223;-76
2024/01/06 11:02:40;;;;;;;6.90;3.20;;;4.90;68.60;;;;;;5010999;28;20133;-72
2024/01/06 11:05:10;;;;;;;7.72;3.80;;;4.90;68.60;;;;;;5016594;28;21155;-75
2024/01/06 11:07:40;;;;;;;5.88;3.20;;;5.00;68.80;;;;;;5014501;28;20087;-76
2024/01/06 11:10:17;;;;;;;4.18;3.08;;;5.00;68.90;;;;;;5018188;28;20449;-73
2024/01/06 11:12:44;;;;;;;6.85;3.40;;;5.00;68.90;;;;;;5018110;28;20026;-77
2024/01/06 11:15:10;;;;;;;6.72;3.15;;;5.00;68.90;;;;;;5006129;28;20349;-76
2024/01/06 11:17:55;;;;;;;9.93;4.07;;;5.10;69.10;;;;;;5013360;28;20060;-75
2024/01/06 11:20:22;;;;;;;5.95;2.88;;;5.10;69.20;;;;;;5025976;28;20037;-78
2024/01/06 11:22:51;;;;;;;6.65;2.28;;;5.20;69.30;;;;;;5015182;28;20038;-75
2024/01/06 11:25:21;;;;;;;5.05;2.50;;;5.20;69.30;;;;;;5014393;28;20064;-77
2024/01/06 11:27:49;;;;;;;3.35;2.20;;;5.20;69.30;;;;;;5004189;28;20041;-76
2024/01/06 11:30:24;;;;;;;3.60;2.58;;;5.30;69.40;;;;;;5000120;28;20065;-76
2024/01/06 11:32:53;;;;;;;5.63;2.17;;;5.30;69.50;;;;;;5015618;28;20041;-76
2024/01/06 11:35:21;;;;;;;4.55;1.90;;;5.40;69.60;;;;;;5010503;28;20036;-74
2024/01/06 11:37:47;;;;;;;2.58;1.60;;;5.40;69.60;;;;;;5006551;28;20075;-77
2024/01/06 11:40:20;;;;;;;3.58;2.10;;;5.50;69.80;;;;;;5001732;28;20623;-76
2024/01/06 11:43:02;;;;;;;2.28;1.90;;;5.60;70.00;;;;;;5007481;28;20149;-76
2024/01/06 11:45:29;;;;;;;3.72;2.10;;;5.60;70.00;;;;;;5014219;28;20045;-73
2024/01/06 11:48:01;;;;;;;3.03;1.90;;;5.70;70.00;;;;;;5008884;28;20049;-72
2024/01/06 11:50:28;;;;;;;2.40;1.60;;;5.80;70.20;;;;;;5015206;28;20033;-73
2024/01/06 11:52:55;;;;;;;4.45;2.35;;;5.80;70.10;;;;;;5009292;28;20060;-74
2024/01/06 11:55:22;;;;;;;4.53;1.83;;;5.80;70.10;;;;;;5009744;28;20033;-71
2024/01/06 11:57:52;;;;;;;5.35;2.65;;;5.90;70.40;;;;;;5015065;28;20336;-73
2024/01/06 12:00:18;;;;;;;4.53;2.22;;;6.00;70.70;;;;;;5010848;28;20033;-73
2024/01/06 12:02:45;;;;;;;3.67;1.90;;;6.10;70.90;;;;;;5013826;28;20436;-74
2024/01/06 12:05:17;;;;;;;3.00;1.83;;;6.20;71.20;;;;;;5017982;28;20356;-72
2024/01/06 12:07:54;;;;;;;2.13;1.58;;;6.30;71.40;;;;;;5011790;28;20044;-72
2024/01/06 12:10:23;;;;;;;7.43;2.60;;;6.30;71.40;;;;;;5016908;28;20124;-73
2024/01/06 12:13:00;;;;;;;3.55;1.45;;;6.40;71.50;;;;;;5013399;28;20042;-74
2024/01/06 12:15:28;;;;;;;2.78;1.30;;;6.50;71.70;;;;;;5012164;28;20139;-72
2024/01/06 12:17:55;;;;;;;2.58;1.65;;;6.50;71.70;;;;;;5010898;28;20038;-75
2024/01/06 12:20:23;;;;;;;5.53;2.97;;;6.60;71.90;;;;;;5010879;28;20045;-72
2024/01/06 12:22:54;;;;;;;7.43;1.95;;;6.60;71.90;;;;;;5032609;28;20642;-74
2024/01/06 12:25:22;;;;;;;4.47;1.50;;;6.60;71.80;;;;;;5003282;28;20366;-72
2024/01/06 12:27:50;;;;;;;2.30;1.30;;;6.70;71.90;;;;;;5015827;28;20128;-72
2024/01/06 12:30:22;;;;;;;7.18;2.63;;;6.70;71.90;;;;;;4999330;28;20237;-73
2024/01/06 12:32:51;;;;;;;5.43;1.60;;;6.70;71.90;;;;;;5017481;28;20025;-71
2024/01/06 12:35:21;;;;;;;5.80;2.20;;;6.80;72.00;;;;;;5025258;28;20033;-73
2024/01/06 12:37:48;;;;;;;8.27;3.35;;;6.80;71.90;;;;;;5012512;28;20041;-74
2024/01/06 12:40:17;;;;;;;9.40;4.15;;;6.80;72.00;;;;;;5015981;28;20611;-75
2024/01/06 12:42:44;;;;;;;8.32;4.78;;;6.80;72.20;;;;;;5009771;28;20120;-75
2024/01/06 12:45:10;;;;;;;6.45;3.38;;;7.00;72.70;;;;;;5012771;28;20053;-72
2024/01/06 12:47:37;;;;;;;7.35;3.60;;;7.10;73.00;;;;;;5021616;28;20050;-73
2024/01/06 12:50:04;;;;;;;7.60;3.28;;;7.10;73.00;;;;;;5015485;28;20512;-76
2024/01/06 12:52:30;;;;;;;5.68;2.63;;;7.20;73.20;;;;;;5001244;28;20302;-76
2024/01/06 12:54:56;;;;;;;6.15;2.95;;;7.30;73.30;;;;;;5005663;28;20072;-73
2024/01/06 12:57:23;;;;;;;4.78;3.15;;;7.30;73.30;;;;;;5014786;28;20109;-75